createdAt,value
2022-08-24T00:01:42.989Z,60.10
2022-08-24T00:05:45.779Z,59.90
2022-08-24T00:09:49.977Z,60.10
2022-08-24T00:13:53.881Z,60.00
2022-08-24T00:17:57.266Z,59.80
2022-08-24T00:22:04.693Z,59.60
2022-08-24T00:26:08.824Z,59.40
2022-08-24T00:30:15.487Z,59.10
2022-08-24T00:34:18.309Z,59.00
2022-08-24T00:38:21.177Z,58.00
2022-08-24T00:42:25.388Z,58.70
2022-08-24T00:46:43.721Z,58.40
2022-08-24T00:50:54.188Z,58.10
2022-08-24T00:55:07.996Z,58.30
2022-08-24T00:59:37.178Z,58.10
2022-08-24T01:03:42.064Z,58.70
2022-08-24T01:07:50.761Z,58.70
2022-08-24T01:11:54.153Z,58.80
2022-08-24T01:16:01.814Z,58.80
2022-08-24T01:20:07.027Z,58.70
2022-08-24T01:24:14.880Z,58.80
2022-08-24T01:28:25.185Z,58.90
2022-08-24T01:32:31.384Z,58.90
2022-08-24T01:36:45.997Z,58.90
2022-08-24T01:40:53.519Z,58.70
2022-08-24T01:44:57.711Z,58.60
2022-08-24T01:49:00.595Z,58.60
2022-08-24T01:53:06.229Z,58.60
2022-08-24T01:57:10.074Z,58.70
2022-08-24T02:01:18.652Z,58.80
2022-08-24T02:05:24.771Z,58.90
2022-08-24T02:09:30.402Z,59.00
2022-08-24T02:13:38.577Z,58.90
2022-08-24T02:17:44.112Z,59.10
2022-08-24T02:21:47.085Z,59.00
2022-08-24T02:25:50.050Z,59.10
2022-08-24T02:29:53.476Z,58.90
2022-08-24T02:33:56.695Z,58.80
2022-08-24T02:37:59.723Z,58.70
2022-08-24T02:42:04.207Z,59.00
2022-08-24T02:46:07.614Z,59.00
2022-08-24T02:50:18.176Z,59.40
2022-08-24T02:54:22.022Z,59.80
2022-08-24T02:58:27.288Z,59.60
2022-08-24T03:02:30.380Z,59.60
2022-08-24T03:06:34.606Z,60.10
2022-08-24T03:10:38.696Z,60.40
2022-08-24T03:14:42.197Z,60.50
2022-08-24T03:18:45.166Z,60.80
2022-08-24T03:22:50.185Z,61.00
2022-08-24T03:26:53.109Z,61.20
2022-08-24T03:30:55.966Z,61.50
2022-08-24T03:35:00.518Z,61.80
2022-08-24T03:39:03.617Z,62.00
2022-08-24T03:43:07.264Z,62.40
2022-08-24T03:47:10.830Z,62.70
2022-08-24T03:51:20.636Z,62.80
2022-08-24T03:55:25.650Z,63.10
2022-08-24T03:59:30.142Z,63.40
2022-08-24T04:03:43.311Z,63.60
2022-08-24T04:07:47.325Z,64.10
2022-08-24T04:11:52.055Z,64.00
2022-08-24T04:16:16.271Z,63.80
2022-08-24T04:20:25.355Z,63.30
2022-08-24T04:24:29.337Z,63.50
2022-08-24T04:28:32.388Z,63.30
2022-08-24T04:32:35.859Z,63.30
2022-08-24T04:36:41.378Z,63.30
2022-08-24T04:40:46.921Z,63.30
2022-08-24T04:44:51.653Z,63.30
2022-08-24T04:48:57.753Z,62.90
2022-08-24T04:53:00.873Z,62.90
2022-08-24T04:57:04.048Z,62.80
2022-08-24T05:01:15.982Z,62.80
2022-08-24T05:05:19.284Z,62.70
2022-08-24T05:09:22.546Z,62.60
2022-08-24T05:13:25.849Z,62.60
2022-08-24T05:17:29.096Z,62.70
2022-08-24T05:21:32.058Z,62.90
2022-08-24T05:25:35.762Z,62.70
2022-08-24T05:29:39.170Z,62.80
2022-08-24T05:33:42.244Z,62.90
2022-08-24T05:37:45.466Z,62.90
2022-08-24T05:41:51.678Z,63.10
2022-08-24T05:46:00.068Z,63.00
2022-08-24T05:50:03.674Z,63.10
2022-08-24T05:54:07.840Z,63.20
2022-08-24T05:58:30.970Z,63.20
2022-08-24T06:02:37.788Z,62.40
2022-08-24T06:06:41.948Z,61.80
2022-08-24T06:10:51.333Z,61.50
2022-08-24T06:14:54.808Z,61.00
2022-08-24T06:18:59.852Z,60.30
2022-08-24T06:23:05.218Z,59.70
2022-08-24T06:27:21.449Z,59.30
2022-08-24T06:31:25.391Z,58.60
2022-08-24T06:35:31.877Z,58.10
2022-08-24T06:39:35.779Z,57.80
2022-08-24T06:43:39.283Z,57.10
2022-08-24T06:47:50.084Z,56.80
2022-08-24T06:51:54.622Z,56.20
2022-08-24T06:56:00.503Z,55.80
2022-08-24T07:00:09.258Z,55.40
2022-08-24T07:04:12.988Z,55.50
2022-08-24T07:08:34.958Z,55.00
2022-08-24T07:12:41.838Z,54.10
2022-08-24T07:16:45.163Z,53.50
2022-08-24T07:20:49.961Z,53.80
2022-08-24T07:24:59.844Z,52.30
2022-08-24T07:29:36.845Z,52.20
2022-08-24T07:33:39.052Z,51.90
2022-08-24T07:37:42.606Z,51.40
2022-08-24T07:46:11.411Z,50.50
2022-08-24T07:50:16.179Z,50.10
2022-08-24T07:54:20.744Z,49.20
2022-08-24T07:58:24.815Z,48.80
2022-08-24T08:02:30.819Z,49.40
2022-08-24T08:06:39.147Z,48.10
2022-08-24T08:10:43.024Z,47.30
2022-08-24T08:14:46.466Z,47.00
2022-08-24T08:19:00.777Z,46.70
2022-08-24T08:23:28.768Z,46.10
2022-08-24T08:31:50.446Z,44.70
2022-08-24T08:36:01.910Z,45.10
2022-08-24T08:40:06.997Z,44.80
2022-08-24T08:44:31.854Z,45.10
2022-08-24T08:49:01.011Z,44.60
2022-08-24T08:53:16.080Z,43.60
2022-08-24T08:57:39.962Z,44.00
2022-08-24T09:02:07.637Z,43.70
2022-08-24T09:06:35.186Z,43.70
2022-08-24T09:11:02.268Z,43.40
2022-08-24T09:15:57.770Z,43.10
2022-08-24T09:20:20.246Z,43.10
2022-08-24T09:24:44.513Z,43.20
2022-08-24T09:29:30.558Z,42.70
2022-08-24T09:34:12.848Z,42.10
2022-08-24T09:38:40.700Z,41.90
2022-08-24T09:43:23.156Z,41.60
2022-08-24T09:48:03.648Z,41.20
2022-08-24T09:52:34.794Z,41.10
2022-08-24T09:57:11.674Z,40.70
2022-08-24T10:01:24.507Z,40.60
2022-08-24T10:05:34.659Z,40.70
2022-08-24T10:10:01.813Z,39.60
2022-08-24T10:14:14.047Z,39.80
2022-08-24T10:18:44.604Z,39.50
2022-08-24T10:23:08.361Z,39.70
2022-08-24T10:27:20.766Z,39.30
2022-08-24T10:32:11.382Z,38.60
2022-08-24T10:36:39.621Z,39.00
2022-08-24T10:41:21.675Z,38.80
2022-08-24T10:45:50.844Z,38.90
2022-08-24T10:50:30.807Z,38.20
2022-08-24T10:54:36.631Z,38.10
2022-08-24T10:58:45.702Z,38.60
2022-08-24T11:02:48.950Z,38.90
2022-08-24T11:07:24.056Z,38.90
2022-08-24T11:11:33.689Z,38.90
2022-08-24T11:15:49.763Z,38.90
2022-08-24T11:19:53.581Z,38.90
2022-08-24T11:24:02.698Z,39.00
2022-08-24T11:28:24.651Z,38.90
2022-08-24T11:32:45.095Z,39.00
2022-08-24T11:36:47.887Z,38.40
2022-08-24T11:40:52.579Z,38.50
2022-08-24T11:44:58.037Z,38.40
2022-08-24T11:49:14.577Z,37.90
2022-08-24T11:53:23.817Z,37.60
2022-08-24T11:57:48.076Z,37.60
2022-08-24T12:01:55.915Z,37.60
2022-08-24T12:06:07.754Z,37.60
2022-08-24T12:10:54.755Z,37.70
2022-08-24T12:15:02.947Z,37.10
2022-08-24T12:19:21.239Z,37.20
2022-08-24T12:23:39.200Z,37.50
2022-08-24T12:27:42.070Z,37.60
2022-08-24T12:32:15.142Z,37.80
2022-08-24T12:36:30.753Z,37.40
2022-08-24T12:40:45.087Z,37.10
2022-08-24T12:44:57.148Z,36.80
2022-08-24T12:49:20.299Z,37.00
2022-08-24T12:53:23.117Z,36.70
2022-08-24T12:57:33.737Z,36.40
2022-08-24T13:01:42.432Z,36.90
2022-08-24T13:05:48.607Z,36.60
2022-08-24T13:10:00.884Z,36.50
2022-08-24T13:14:20.376Z,36.60
2022-08-24T13:18:46.586Z,36.80
2022-08-24T13:23:06.585Z,36.30
2022-08-24T13:27:12.699Z,36.40
2022-08-24T13:31:24.796Z,36.40
2022-08-24T13:35:52.461Z,36.50
2022-08-24T13:40:17.702Z,37.10
2022-08-24T13:44:38.821Z,37.10
2022-08-24T13:49:01.830Z,37.30
2022-08-24T13:53:52.931Z,37.80
2022-08-24T13:58:14.862Z,37.80
2022-08-24T14:02:18.489Z,37.90
2022-08-24T14:06:40.458Z,38.00
2022-08-24T14:10:55.368Z,38.70
2022-08-24T14:15:25.873Z,38.60
2022-08-24T14:19:29.149Z,38.50
2022-08-24T14:23:52.665Z,38.00
2022-08-24T14:27:56.336Z,37.50
2022-08-24T14:32:08.678Z,37.40
2022-08-24T14:36:29.673Z,37.40
2022-08-24T14:40:56.864Z,36.90
2022-08-24T14:45:12.930Z,37.50
2022-08-24T14:49:44.946Z,38.20
2022-08-24T14:54:20.963Z,38.50
2022-08-24T14:58:50.232Z,39.10
2022-08-24T15:03:12.118Z,39.30
2022-08-24T15:07:38.509Z,39.00
2022-08-24T15:20:40.295Z,38.40
2022-08-24T15:24:51.668Z,38.50
2022-08-24T15:55:04.732Z,37.60
2022-08-24T16:03:53.326Z,37.50
2022-08-24T16:12:23.698Z,37.50
2022-08-24T16:16:44.300Z,37.70
2022-08-24T16:20:57.789Z,37.50
2022-08-24T16:29:45.984Z,36.50
2022-08-24T16:33:52.892Z,36.50
2022-08-24T17:04:06.794Z,34.80
2022-08-24T17:12:29.693Z,36.20
2022-08-24T17:16:33.607Z,36.90
2022-08-24T17:20:37.050Z,37.50
2022-08-24T17:24:41.194Z,37.90
2022-08-24T17:28:47.871Z,37.10
2022-08-24T17:32:59.424Z,36.40
2022-08-24T17:37:03.017Z,36.10
2022-08-24T17:41:10.670Z,35.90
2022-08-24T17:45:17.509Z,35.90
2022-08-24T17:49:22.350Z,36.90
2022-08-24T17:53:33.846Z,37.60
2022-08-24T17:57:39.677Z,38.50
2022-08-24T18:01:42.830Z,39.30
2022-08-24T18:05:48.090Z,39.90
2022-08-24T18:09:58.671Z,40.40
2022-08-24T18:14:01.972Z,40.70
2022-08-24T18:18:07.821Z,41.50
2022-08-24T18:22:11.841Z,41.60
2022-08-24T18:26:27.957Z,42.00
2022-08-24T18:34:50.212Z,42.90
2022-08-24T18:38:53.640Z,43.30
2022-08-24T18:42:59.112Z,43.60
2022-08-24T18:47:02.637Z,43.90
2022-08-24T18:51:06.129Z,44.20
2022-08-24T18:55:09.689Z,44.50
2022-08-24T18:59:15.857Z,45.00
2022-08-24T19:03:23.436Z,45.50
2022-08-24T19:07:28.213Z,46.00
2022-08-24T19:11:31.049Z,46.60
2022-08-24T19:15:39.908Z,47.10
2022-08-24T19:19:45.865Z,47.50
2022-08-24T19:23:48.907Z,48.10
2022-08-24T19:27:53.888Z,48.40
2022-08-24T19:31:57.453Z,48.70
2022-08-24T19:36:00.894Z,49.00
2022-08-24T19:40:04.926Z,49.30
2022-08-24T19:44:28.940Z,49.60
2022-08-24T19:48:34.163Z,49.70
2022-08-24T19:52:38.547Z,49.80
2022-08-24T19:56:41.611Z,50.00
2022-08-24T20:00:51.495Z,50.00
2022-08-24T20:04:54.650Z,50.20
2022-08-24T20:08:57.419Z,50.40
2022-08-24T20:13:01.587Z,50.70
2022-08-24T20:17:05.478Z,50.80
2022-08-24T20:21:09.091Z,50.90
2022-08-24T20:25:12.103Z,51.10
2022-08-24T20:29:15.330Z,51.40
2022-08-24T20:33:21.439Z,51.80
2022-08-24T20:37:29.865Z,52.10
2022-08-24T20:41:57.766Z,52.40
2022-08-24T20:46:01.790Z,51.80
2022-08-24T20:50:05.919Z,52.50
2022-08-24T20:54:08.902Z,52.40
2022-08-24T20:58:12.366Z,52.50
2022-08-24T21:02:15.610Z,52.50
2022-08-24T21:06:19.846Z,52.50
2022-08-24T21:10:26.707Z,52.40
2022-08-24T21:14:29.867Z,52.40
2022-08-24T21:18:33.729Z,52.60
2022-08-24T21:22:37.412Z,52.60
2022-08-24T21:26:40.519Z,52.70
2022-08-24T21:30:47.598Z,52.60
2022-08-24T21:34:50.538Z,52.70
2022-08-24T21:38:59.269Z,52.80
2022-08-24T21:43:02.396Z,52.70
2022-08-24T21:47:07.606Z,52.70
2022-08-24T21:51:10.813Z,52.60
2022-08-24T21:55:15.088Z,52.50
2022-08-24T21:59:20.132Z,52.40
2022-08-24T22:03:23.098Z,52.60
2022-08-24T22:07:26.173Z,52.70
2022-08-24T22:11:31.987Z,53.40
2022-08-24T22:15:37.121Z,53.70
2022-08-24T22:19:40.666Z,54.20
2022-08-24T22:23:44.363Z,54.40
2022-08-24T22:27:47.286Z,54.60
2022-08-24T22:31:50.149Z,55.10
2022-08-24T22:35:54.289Z,55.40
2022-08-24T22:39:58.245Z,55.80
2022-08-24T22:44:30.765Z,56.00
2022-08-24T22:48:34.929Z,56.40
2022-08-24T22:52:37.856Z,56.50
2022-08-24T22:56:47.788Z,56.50
2022-08-24T23:00:50.829Z,56.90
2022-08-24T23:04:56.178Z,57.30
2022-08-24T23:08:59.967Z,57.10
2022-08-24T23:13:02.786Z,57.00
2022-08-24T23:17:06.580Z,57.60
2022-08-24T23:21:13.614Z,57.50
2022-08-24T23:25:17.255Z,57.50
2022-08-24T23:29:23.463Z,57.60
2022-08-24T23:33:28.747Z,57.20
2022-08-24T23:37:38.177Z,57.10
2022-08-24T23:41:46.255Z,57.10
2022-08-24T23:45:49.711Z,57.40
2022-08-24T23:49:52.986Z,57.20
2022-08-24T23:53:57.425Z,57.30
2022-08-24T23:58:00.378Z,57.40
